createdAt,value
2023-05-15T00:01:48.373Z,3.83
2023-05-15T00:04:14.804Z,4.90
2023-05-15T00:06:41.299Z,4.78
2023-05-15T00:09:08.613Z,4.00
2023-05-15T00:11:34.969Z,4.63
2023-05-15T00:14:01.341Z,5.00
2023-05-15T00:16:27.738Z,3.38
2023-05-15T00:18:54.153Z,4.03
2023-05-15T00:21:20.652Z,3.30
2023-05-15T00:23:47.548Z,2.15
2023-05-15T00:26:15.716Z,5.25
2023-05-15T00:28:42.109Z,5.70
2023-05-15T00:31:08.880Z,4.00
2023-05-15T00:33:35.451Z,2.95
2023-05-15T00:36:03.189Z,4.85
2023-05-15T00:38:29.574Z,4.40
2023-05-15T00:40:56.612Z,2.75
2023-05-15T00:43:25.645Z,4.65
2023-05-15T00:45:53.364Z,2.95
2023-05-15T00:48:22.547Z,3.55
2023-05-15T00:50:50.323Z,4.97
2023-05-15T00:53:17.348Z,3.55
2023-05-15T00:55:46.254Z,3.53
2023-05-15T00:58:14.752Z,3.55
2023-05-15T01:00:43.286Z,2.20
2023-05-15T01:03:09.789Z,7.22
2023-05-15T01:05:36.956Z,2.35
2023-05-15T01:08:27.529Z,2.78
2023-05-15T01:10:55.357Z,2.88
2023-05-15T01:13:22.736Z,2.85
2023-05-15T01:15:49.919Z,2.10
2023-05-15T01:18:17.027Z,4.57
2023-05-15T01:21:02.761Z,2.55
2023-05-15T01:23:47.824Z,2.63
2023-05-15T01:26:40.660Z,2.28
2023-05-15T01:29:35.156Z,3.00
2023-05-15T01:32:06.633Z,2.78
2023-05-15T01:34:55.554Z,2.63
2023-05-15T01:37:25.595Z,4.70
2023-05-15T01:39:59.974Z,3.88
2023-05-15T01:42:33.273Z,2.97
2023-05-15T01:45:03.445Z,2.55
2023-05-15T01:47:37.747Z,3.50
2023-05-15T01:50:06.896Z,4.55
2023-05-15T01:52:35.771Z,1.98
2023-05-15T01:55:04.246Z,2.83
2023-05-15T01:57:31.769Z,2.70
2023-05-15T01:59:59.377Z,3.83
2023-05-15T02:02:27.448Z,3.42
2023-05-15T02:04:56.585Z,4.40
2023-05-15T02:07:23.879Z,4.63
2023-05-15T02:09:52.642Z,3.42
2023-05-15T02:12:20.802Z,2.45
2023-05-15T02:14:49.380Z,3.22
2023-05-15T02:17:16.274Z,2.13
2023-05-15T02:19:42.661Z,3.00
2023-05-15T02:22:09.255Z,2.10
2023-05-15T02:24:35.745Z,2.35
2023-05-15T02:27:13.390Z,1.80
2023-05-15T02:29:45.734Z,2.83
2023-05-15T02:32:29.081Z,2.75
2023-05-15T02:35:25.950Z,2.30
2023-05-15T02:37:56.371Z,4.70
2023-05-15T02:40:25.854Z,2.47
2023-05-15T02:42:53.678Z,2.38
2023-05-15T02:45:21.948Z,2.30
2023-05-15T02:47:50.471Z,2.58
2023-05-15T02:50:17.926Z,3.10
2023-05-15T02:52:44.340Z,3.38
2023-05-15T02:55:10.713Z,2.47
2023-05-15T02:57:37.134Z,2.15
2023-05-15T03:00:06.588Z,2.00
2023-05-15T03:02:33.114Z,2.85
2023-05-15T03:04:59.558Z,2.58
2023-05-15T03:07:26.865Z,2.47
2023-05-15T03:09:53.293Z,2.50
2023-05-15T03:12:19.644Z,2.33
2023-05-15T03:14:46.062Z,3.20
2023-05-15T03:17:12.676Z,2.08
2023-05-15T03:19:39.090Z,2.15
2023-05-15T03:22:05.573Z,3.65
2023-05-15T03:24:32.008Z,1.63
2023-05-15T03:26:58.355Z,3.00
2023-05-15T03:29:24.733Z,2.00
2023-05-15T03:31:51.202Z,2.13
2023-05-15T03:34:17.588Z,2.95
2023-05-15T03:36:43.940Z,1.90
2023-05-15T03:39:10.485Z,2.38
2023-05-15T03:41:37.804Z,1.95
2023-05-15T03:44:04.225Z,1.77
2023-05-15T03:46:30.928Z,2.38
2023-05-15T03:48:57.387Z,2.08
2023-05-15T03:51:24.091Z,3.22
2023-05-15T03:53:53.291Z,1.85
2023-05-15T03:56:22.647Z,4.35
2023-05-15T03:58:49.017Z,2.22
2023-05-15T04:01:15.501Z,2.85
2023-05-15T04:03:41.927Z,1.40
2023-05-15T04:06:08.323Z,2.38
2023-05-15T04:08:34.676Z,2.03
2023-05-15T04:11:01.308Z,2.05
2023-05-15T04:13:27.660Z,2.75
2023-05-15T04:15:55.048Z,1.85
2023-05-15T04:18:21.437Z,1.95
2023-05-15T04:20:47.804Z,1.38
2023-05-15T04:23:14.243Z,1.98
2023-05-15T04:25:45.252Z,2.53
2023-05-15T04:28:11.677Z,2.40
2023-05-15T04:30:38.144Z,2.00
2023-05-15T04:33:04.583Z,1.73
2023-05-15T04:35:30.988Z,1.73
2023-05-15T04:37:57.350Z,2.28
2023-05-15T04:40:23.809Z,2.10
2023-05-15T04:42:50.247Z,1.50
2023-05-15T04:45:16.694Z,2.03
2023-05-15T04:47:43.071Z,1.65
2023-05-15T04:50:09.772Z,2.47
2023-05-15T04:52:36.191Z,3.95
2023-05-15T04:55:02.606Z,1.85
2023-05-15T04:57:29.377Z,2.85
2023-05-15T04:59:55.828Z,3.47
2023-05-15T05:02:23.047Z,1.77
2023-05-15T05:04:50.078Z,2.60
2023-05-15T05:07:16.832Z,3.25
2023-05-15T05:09:43.193Z,3.85
2023-05-15T05:12:09.731Z,2.90
2023-05-15T05:14:36.304Z,20.05
2023-05-15T05:17:03.264Z,27.02
2023-05-15T05:19:29.715Z,41.45
2023-05-15T05:21:58.209Z,24.55
2023-05-15T05:24:25.043Z,40.97
2023-05-15T05:26:51.445Z,22.05
2023-05-15T05:29:17.828Z,16.80
2023-05-15T05:31:46.756Z,23.55
2023-05-15T05:34:13.232Z,25.55
2023-05-15T05:36:39.642Z,20.67
2023-05-15T05:39:06.062Z,21.27
2023-05-15T05:41:35.430Z,16.85
2023-05-15T05:44:01.907Z,18.17
2023-05-15T05:46:28.554Z,21.60
2023-05-15T05:48:54.972Z,16.35
2023-05-15T05:51:21.582Z,16.45
2023-05-15T05:53:48.013Z,15.38
2023-05-15T05:56:14.491Z,19.63
2023-05-15T05:58:40.849Z,9.95
2023-05-15T06:01:07.693Z,8.95
2023-05-15T06:03:34.404Z,13.80
2023-05-15T06:06:01.000Z,15.70
2023-05-15T06:08:29.326Z,11.52
2023-05-15T06:10:55.902Z,14.15
2023-05-15T06:13:22.245Z,9.68
2023-05-15T06:15:48.610Z,12.77
2023-05-15T06:18:15.006Z,10.05
2023-05-15T06:20:42.791Z,12.05
2023-05-15T06:23:09.507Z,11.65
2023-05-15T06:25:36.350Z,9.82
2023-05-15T06:28:02.712Z,10.05
2023-05-15T06:30:29.110Z,9.88
2023-05-15T06:32:55.637Z,8.35
2023-05-15T06:35:24.017Z,11.27
2023-05-15T06:37:51.790Z,11.15
2023-05-15T06:40:18.406Z,8.82
2023-05-15T06:42:44.750Z,8.52
2023-05-15T06:45:12.281Z,9.48
2023-05-15T06:47:38.857Z,4.32
2023-05-15T06:50:06.453Z,10.77
2023-05-15T06:52:32.824Z,8.63
2023-05-15T06:54:59.220Z,10.45
2023-05-15T06:57:26.251Z,11.57
2023-05-15T06:59:52.691Z,6.07
2023-05-15T07:02:19.199Z,8.13
2023-05-15T07:04:45.620Z,13.90
2023-05-15T07:07:12.251Z,8.55
2023-05-15T07:09:39.121Z,5.45
2023-05-15T07:12:05.790Z,9.68
2023-05-15T07:14:32.265Z,10.32
2023-05-15T07:16:58.641Z,9.52
2023-05-15T07:19:25.064Z,7.00
2023-05-15T07:21:51.767Z,6.25
2023-05-15T07:24:18.211Z,8.15
2023-05-15T07:26:57.441Z,6.57
2023-05-15T07:29:25.217Z,5.90
2023-05-15T07:31:51.581Z,6.63
2023-05-15T07:34:18.106Z,7.05
2023-05-15T07:36:44.458Z,6.70
2023-05-15T07:39:10.934Z,7.90
2023-05-15T07:41:37.310Z,3.47
2023-05-15T07:44:03.767Z,6.45
2023-05-15T07:46:30.279Z,6.40
2023-05-15T07:48:56.667Z,6.55
2023-05-15T07:51:23.034Z,6.82
2023-05-15T07:53:49.405Z,7.05
2023-05-15T07:56:16.459Z,4.45
2023-05-15T07:58:42.841Z,8.60
2023-05-15T08:01:09.224Z,5.05
2023-05-15T08:03:35.952Z,5.40
2023-05-15T08:06:02.396Z,6.20
2023-05-15T08:08:28.906Z,4.25
2023-05-15T08:10:55.485Z,8.75
2023-05-15T08:13:21.853Z,5.22
2023-05-15T08:15:48.262Z,8.57
2023-05-15T08:18:14.622Z,7.93
2023-05-15T08:20:41.150Z,7.90
2023-05-15T08:23:08.127Z,6.45
2023-05-15T08:25:34.465Z,7.28
2023-05-15T08:28:01.982Z,7.95
2023-05-15T08:30:28.518Z,8.45
2023-05-15T08:32:54.922Z,4.50
2023-05-15T08:35:21.347Z,7.63
2023-05-15T08:37:47.799Z,6.45
2023-05-15T08:40:15.014Z,6.05
2023-05-15T08:42:48.784Z,5.13
2023-05-15T08:45:15.186Z,4.35
2023-05-15T08:47:42.700Z,4.68
2023-05-15T08:50:13.870Z,5.05
2023-05-15T08:52:46.706Z,4.82
2023-05-15T08:55:17.162Z,5.35
2023-05-15T08:57:44.879Z,6.72
2023-05-15T09:00:14.696Z,6.65
2023-05-15T09:02:42.732Z,7.72
2023-05-15T09:05:10.383Z,10.20
2023-05-15T09:07:39.531Z,6.78
2023-05-15T09:10:06.976Z,6.28
2023-05-15T09:12:34.730Z,9.57
2023-05-15T09:15:17.059Z,6.82
2023-05-15T09:17:44.421Z,5.82
2023-05-15T09:20:34.903Z,6.05
2023-05-15T09:23:03.227Z,7.68
2023-05-15T09:25:40.375Z,7.10
2023-05-15T09:28:09.338Z,6.63
2023-05-15T09:30:41.653Z,7.03
2023-05-15T09:33:09.124Z,8.15
2023-05-15T09:35:37.903Z,4.88
2023-05-15T09:38:08.927Z,7.50
2023-05-15T09:40:35.429Z,5.07
2023-05-15T09:43:01.856Z,9.45
2023-05-15T09:45:30.202Z,7.78
2023-05-15T09:47:59.972Z,8.32
2023-05-15T09:50:33.723Z,5.93
2023-05-15T09:53:00.392Z,4.72
2023-05-15T09:55:27.596Z,7.05
2023-05-15T09:58:11.452Z,6.30
2023-05-15T10:00:48.308Z,8.07
2023-05-15T10:03:17.065Z,6.28
2023-05-15T10:05:44.243Z,8.63
2023-05-15T10:08:11.645Z,8.13
2023-05-15T10:10:38.675Z,7.28
2023-05-15T10:13:07.767Z,6.80
2023-05-15T10:15:53.316Z,7.72
2023-05-15T10:18:24.854Z,9.10
2023-05-15T10:20:51.673Z,4.18
2023-05-15T10:23:20.756Z,13.73
2023-05-15T10:26:14.184Z,9.20
2023-05-15T12:04:01.483Z,7.50
2023-05-15T12:15:17.235Z,4.30
2023-05-15T12:18:03.348Z,5.97
2023-05-15T12:20:29.994Z,6.93
2023-05-15T12:22:58.558Z,4.00
2023-05-15T12:25:25.470Z,4.10
2023-05-15T12:50:22.175Z,7.03
2023-05-15T13:35:57.256Z,6.55
2023-05-15T13:38:23.668Z,8.05
2023-05-15T14:25:03.024Z,4.93
2023-05-15T14:27:29.702Z,6.32
2023-05-15T14:29:59.001Z,7.03
2023-05-15T14:54:09.959Z,11.52
2023-05-15T14:56:36.290Z,10.95
2023-05-15T15:07:59.427Z,11.77
2023-05-15T15:10:26.693Z,10.35
2023-05-15T15:13:13.823Z,22.38
2023-05-15T15:15:40.739Z,12.23
2023-05-15T15:18:07.692Z,9.52
2023-05-15T15:20:34.809Z,10.35
2023-05-15T15:23:04.719Z,13.38
2023-05-15T15:25:32.875Z,11.98
2023-05-15T15:27:59.534Z,12.57
2023-05-15T15:30:26.096Z,23.17
2023-05-15T15:32:54.565Z,9.52
2023-05-15T15:35:21.335Z,11.35
2023-05-15T15:37:47.702Z,14.30
2023-05-15T15:40:14.147Z,6.03
2023-05-15T15:42:40.569Z,13.50
2023-05-15T15:45:07.334Z,9.57
2023-05-15T15:47:33.742Z,17.42
2023-05-15T15:50:00.260Z,8.27
2023-05-15T15:52:27.329Z,8.63
2023-05-15T15:54:54.013Z,5.70
2023-05-15T15:57:21.492Z,10.13
2023-05-15T15:59:47.981Z,13.52
2023-05-15T16:02:14.720Z,11.32
2023-05-15T16:04:41.078Z,6.22
2023-05-15T16:07:07.503Z,8.93
2023-05-15T16:09:34.254Z,9.68
2023-05-15T16:12:01.619Z,7.75
2023-05-15T16:14:28.036Z,9.93
2023-05-15T16:16:54.868Z,9.57
2023-05-15T16:19:21.775Z,5.10
2023-05-15T16:21:49.252Z,5.65
2023-05-15T16:24:15.715Z,6.55
2023-05-15T16:26:42.125Z,5.63
2023-05-15T16:29:08.531Z,7.60
2023-05-15T16:31:36.128Z,6.65
2023-05-15T16:34:03.818Z,7.50
2023-05-15T16:36:31.233Z,7.65
2023-05-15T16:38:57.652Z,5.90
2023-05-15T16:41:24.010Z,8.27
2023-05-15T16:43:50.383Z,5.70
2023-05-15T16:46:16.827Z,7.07
2023-05-15T16:48:43.319Z,8.35
2023-05-15T16:51:09.857Z,6.03
2023-05-15T16:53:36.387Z,4.00
2023-05-15T16:56:02.891Z,5.55
2023-05-15T16:58:29.365Z,6.60
2023-05-15T17:00:55.695Z,7.07
2023-05-15T17:03:22.146Z,11.75
2023-05-15T17:05:48.620Z,5.07
2023-05-15T17:08:15.008Z,8.80
2023-05-15T17:10:41.358Z,9.70
2023-05-15T17:13:07.874Z,4.20
2023-05-15T17:15:34.782Z,7.85
2023-05-15T17:18:01.195Z,4.82
2023-05-15T17:20:27.575Z,4.75
2023-05-15T17:22:53.920Z,5.90
2023-05-15T17:25:20.428Z,5.82
2023-05-15T17:27:46.867Z,11.52
2023-05-15T17:30:13.332Z,5.50
2023-05-15T17:32:39.880Z,6.07
2023-05-15T17:35:06.746Z,5.47
2023-05-15T17:37:33.639Z,4.95
2023-05-15T17:40:00.590Z,6.03
2023-05-15T17:42:28.255Z,5.18
2023-05-15T17:44:56.304Z,5.55
2023-05-15T17:47:22.982Z,4.10
2023-05-15T17:49:49.355Z,4.03
2023-05-15T17:52:15.751Z,4.45
2023-05-15T17:54:42.099Z,4.90
2023-05-15T17:57:08.464Z,5.38
2023-05-15T17:59:34.829Z,5.20
2023-05-15T18:02:01.334Z,2.53
2023-05-15T18:04:28.217Z,7.18
2023-05-15T18:06:54.637Z,5.80
2023-05-15T18:09:23.891Z,6.55
2023-05-15T18:11:50.967Z,3.85
2023-05-15T18:14:17.559Z,5.97
2023-05-15T18:16:44.240Z,3.55
2023-05-15T18:19:11.102Z,5.75
2023-05-15T18:21:37.980Z,6.97
2023-05-15T18:24:04.841Z,3.17
2023-05-15T18:26:31.199Z,3.67
2023-05-15T18:28:57.595Z,9.02
2023-05-15T18:31:24.118Z,7.30
2023-05-15T18:33:50.546Z,5.75
2023-05-15T18:36:16.881Z,12.15
2023-05-15T18:38:43.217Z,8.60
2023-05-15T18:41:09.561Z,9.77
2023-05-15T18:43:35.932Z,7.63
2023-05-15T18:46:02.314Z,4.30
2023-05-15T18:48:28.721Z,4.13
2023-05-15T18:50:55.729Z,6.38
2023-05-15T18:53:22.188Z,8.07
2023-05-15T18:55:48.624Z,7.90
2023-05-15T18:58:14.978Z,6.90
2023-05-15T19:00:41.408Z,5.70
2023-05-15T19:03:08.956Z,5.97
2023-05-15T19:05:35.699Z,6.15
2023-05-15T19:08:02.072Z,5.07
2023-05-15T19:10:29.392Z,7.00
2023-05-15T19:12:56.849Z,5.35
2023-05-15T19:15:23.282Z,5.15
2023-05-15T19:17:49.770Z,4.90
2023-05-15T19:20:16.275Z,4.72
2023-05-15T19:22:42.620Z,4.53
2023-05-15T19:25:11.376Z,3.47
2023-05-15T19:27:37.784Z,7.05
2023-05-15T19:30:06.828Z,5.57
2023-05-15T19:32:34.256Z,4.97
2023-05-15T19:35:00.788Z,5.75
2023-05-15T19:37:27.129Z,4.63
2023-05-15T19:39:53.514Z,5.30
2023-05-15T19:42:19.883Z,7.30
2023-05-15T19:44:46.246Z,4.10
2023-05-15T19:47:12.668Z,4.43
2023-05-15T19:49:39.080Z,5.70
2023-05-15T19:52:05.604Z,3.95
2023-05-15T19:54:31.975Z,4.53
2023-05-15T19:56:58.568Z,6.05
2023-05-15T19:59:24.954Z,8.50
2023-05-15T20:01:51.334Z,5.70
2023-05-15T20:04:17.845Z,4.78
2023-05-15T20:06:44.176Z,4.60
2023-05-15T20:09:10.542Z,5.93
2023-05-15T20:11:37.038Z,8.23
2023-05-15T20:14:03.593Z,3.80
2023-05-15T20:16:30.014Z,4.05
2023-05-15T20:18:57.140Z,5.28
2023-05-15T20:21:23.502Z,3.05
2023-05-15T20:23:51.009Z,4.15
2023-05-15T20:26:18.825Z,8.05
2023-05-15T20:28:45.627Z,5.50
2023-05-15T20:31:12.075Z,3.05
2023-05-15T20:33:38.501Z,6.57
2023-05-15T20:36:05.235Z,7.90
2023-05-15T20:38:33.702Z,6.18
2023-05-15T20:41:00.066Z,7.45
2023-05-15T20:43:26.665Z,6.20
2023-05-15T20:45:53.222Z,3.53
2023-05-15T20:48:19.623Z,4.25
2023-05-15T20:50:46.140Z,5.45
2023-05-15T20:53:13.164Z,4.22
2023-05-15T20:55:39.664Z,7.80
2023-05-15T20:58:06.055Z,5.60
2023-05-15T21:00:32.691Z,6.07
2023-05-15T21:02:59.204Z,4.65
2023-05-15T21:05:25.667Z,4.38
2023-05-15T21:07:52.157Z,6.07
2023-05-15T21:10:18.528Z,6.80
2023-05-15T21:12:44.892Z,5.93
2023-05-15T21:15:11.357Z,4.65
2023-05-15T21:17:38.009Z,6.68
2023-05-15T21:20:04.881Z,3.85
2023-05-15T21:22:31.285Z,4.22
2023-05-15T21:24:57.716Z,10.93
2023-05-15T21:27:24.221Z,7.07
2023-05-15T21:29:51.165Z,6.35
2023-05-15T21:32:17.554Z,4.97
2023-05-15T21:34:44.075Z,5.57
2023-05-15T21:37:10.724Z,5.82
2023-05-15T21:39:37.077Z,3.20
2023-05-15T21:42:03.643Z,7.22
2023-05-15T21:44:30.042Z,7.53
2023-05-15T21:46:56.920Z,5.47
2023-05-15T21:49:24.414Z,8.65
2023-05-15T21:51:50.750Z,4.15
2023-05-15T21:54:17.092Z,5.18
2023-05-15T21:56:43.475Z,7.63
2023-05-15T21:59:11.270Z,4.20
2023-05-15T22:01:37.742Z,4.82
2023-05-15T22:04:04.178Z,5.22
2023-05-15T22:06:31.021Z,7.18
2023-05-15T22:08:57.621Z,6.90
2023-05-15T22:11:24.077Z,3.65
2023-05-15T22:13:50.619Z,4.22
2023-05-15T22:16:17.122Z,5.97
2023-05-15T22:18:45.185Z,4.90
2023-05-15T22:21:11.904Z,5.97
2023-05-15T22:23:38.277Z,5.32
2023-05-15T22:26:04.683Z,5.68
2023-05-15T22:28:31.062Z,3.78
2023-05-15T22:30:57.485Z,5.57
2023-05-15T22:33:24.450Z,3.40
2023-05-15T22:35:52.591Z,3.15
2023-05-15T22:38:19.244Z,4.47
2023-05-15T22:40:52.408Z,4.75
2023-05-15T22:43:19.314Z,3.63
2023-05-15T22:45:45.834Z,3.60
2023-05-15T22:48:12.290Z,3.92
2023-05-15T22:50:38.687Z,3.72
2023-05-15T22:53:05.058Z,5.13
2023-05-15T22:55:31.450Z,2.10
2023-05-15T22:57:57.870Z,5.35
2023-05-15T23:00:24.352Z,7.85
2023-05-15T23:02:54.950Z,6.05
2023-05-15T23:05:21.849Z,4.15
2023-05-15T23:07:48.618Z,3.58
2023-05-15T23:10:14.974Z,3.47
2023-05-15T23:12:41.398Z,5.55
2023-05-15T23:15:10.232Z,4.80
2023-05-15T23:17:36.805Z,3.92
2023-05-15T23:20:05.604Z,5.13
2023-05-15T23:22:32.504Z,3.15
2023-05-15T23:24:58.969Z,5.05
2023-05-15T23:27:25.364Z,2.72
2023-05-15T23:29:51.720Z,3.95
2023-05-15T23:32:18.122Z,5.20
2023-05-15T23:34:44.534Z,1.67
2023-05-15T23:37:10.900Z,4.20
2023-05-15T23:39:37.252Z,4.85
2023-05-15T23:42:03.761Z,4.80
2023-05-15T23:44:30.160Z,4.30
2023-05-15T23:46:56.559Z,2.60
2023-05-15T23:49:22.974Z,4.47
2023-05-15T23:51:49.329Z,4.50
2023-05-15T23:54:15.737Z,3.95
2023-05-15T23:56:42.142Z,3.35
2023-05-15T23:59:08.504Z,4.10
